sensor_id;sensor_type;location;lat;lon;timestamp;pressure;altitude;pressure_sealevel;temperature;humidity
11001;BME280;5553;48.506;8.870;2023-05-22T00:02:17;96195.28;;;11.74;100.00
11001;BME280;5553;48.506;8.870;2023-05-22T00:04:47;96190.41;;;11.71;100.00
11001;BME280;5553;48.506;8.870;2023-05-22T00:07:15;96190.63;;;11.63;100.00
11001;BME280;5553;48.506;8.870;2023-05-22T00:09:43;96189.00;;;11.55;100.00
11001;BME280;5553;48.506;8.870;2023-05-22T00:12:11;96185.94;;;11.58;100.00
11001;BME280;5553;48.506;8.870;2023-05-22T00:14:42;96180.47;;;11.67;100.00
11001;BME280;5553;48.506;8.870;2023-05-22T00:17:10;96180.84;;;11.70;100.00
11001;BME280;5553;48.506;8.870;2023-05-22T00:19:39;96173.09;;;11.75;100.00
11001;BME280;5553;48.506;8.870;2023-05-22T00:22:08;96179.44;;;11.68;100.00
11001;BME280;5553;48.506;8.870;2023-05-22T00:24:36;96176.63;;;11.62;100.00
11001;BME280;5553;48.506;8.870;2023-05-22T00:27:05;96171.72;;;11.66;100.00
11001;BME280;5553;48.506;8.870;2023-05-22T00:29:33;96170.94;;;11.59;100.00
11001;BME280;5553;48.506;8.870;2023-05-22T00:32:05;96178.41;;;11.62;100.00
11001;BME280;5553;48.506;8.870;2023-05-22T00:34:33;96172.53;;;11.60;100.00
11001;BME280;5553;48.506;8.870;2023-05-22T00:37:01;96171.13;;;11.57;100.00
11001;BME280;5553;48.506;8.870;2023-05-22T00:39:30;96174.00;;;11.43;100.00
11001;BME280;5553;48.506;8.870;2023-05-22T00:41:58;96173.59;;;11.39;100.00
11001;BME280;5553;48.506;8.870;2023-05-22T00:44:26;96181.09;;;11.35;100.00
11001;BME280;5553;48.506;8.870;2023-05-22T00:46:55;96179.88;;;11.38;100.00
11001;BME280;5553;48.506;8.870;2023-05-22T00:49:26;96177.44;;;11.36;100.00
11001;BME280;5553;48.506;8.870;2023-05-22T00:51:54;96173.38;;;11.34;100.00
11001;BME280;5553;48.506;8.870;2023-05-22T00:54:22;96178.25;;;11.30;100.00
11001;BME280;5553;48.506;8.870;2023-05-22T00:56:51;96183.13;;;11.33;100.00
11001;BME280;5553;48.506;8.870;2023-05-22T00:59:19;96189.03;;;11.22;100.00
11001;BME280;5553;48.506;8.870;2023-05-22T01:01:47;96194.69;;;11.06;100.00
11001;BME280;5553;48.506;8.870;2023-05-22T01:04:16;96194.91;;;10.91;100.00
11001;BME280;5553;48.506;8.870;2023-05-22T01:06:47;96201.38;;;10.88;100.00
11001;BME280;5553;48.506;8.870;2023-05-22T01:09:16;96209.06;;;10.83;100.00
11001;BME280;5553;48.506;8.870;2023-05-22T01:11:50;96207.84;;;10.79;100.00
11001;BME280;5553;48.506;8.870;2023-05-22T01:14:24;96202.78;;;10.78;100.00
11001;BME280;5553;48.506;8.870;2023-05-22T01:17:01;96214.78;;;10.80;100.00
11001;BME280;5553;48.506;8.870;2023-05-22T01:19:53;96213.13;;;10.79;100.00
11001;BME280;5553;48.506;8.870;2023-05-22T01:22:47;96224.28;;;10.68;100.00
11001;BME280;5553;48.506;8.870;2023-05-22T01:31:15;96230.16;;;10.70;100.00
11001;BME280;5553;48.506;8.870;2023-05-22T01:33:46;96238.69;;;10.72;100.00
11001;BME280;5553;48.506;8.870;2023-05-22T01:36:17;96243.56;;;10.75;100.00
11001;BME280;5553;48.506;8.870;2023-05-22T01:38:47;96237.91;;;10.78;100.00
11001;BME280;5553;48.506;8.870;2023-05-22T01:41:16;96241.56;;;10.84;100.00
11001;BME280;5553;48.506;8.870;2023-05-22T01:43:46;96247.69;;;10.91;100.00
11001;BME280;5553;48.506;8.870;2023-05-22T01:46:17;96244.81;;;10.93;100.00
11001;BME280;5553;48.506;8.870;2023-05-22T01:48:45;96231.66;;;10.99;100.00
11001;BME280;5553;48.506;8.870;2023-05-22T01:51:17;96237.34;;;11.03;100.00
11001;BME280;5553;48.506;8.870;2023-05-22T01:53:51;96249.50;;;11.04;100.00
11001;BME280;5553;48.506;8.870;2023-05-22T01:56:23;96253.41;;;11.08;100.00
11001;BME280;5553;48.506;8.870;2023-05-22T01:59:00;96258.88;;;11.13;100.00
11001;BME280;5553;48.506;8.870;2023-05-22T02:01:35;96247.28;;;11.07;100.00
11001;BME280;5553;48.506;8.870;2023-05-22T02:04:05;96249.91;;;11.01;100.00
11001;BME280;5553;48.506;8.870;2023-05-22T02:06:33;96251.31;;;10.97;100.00
11001;BME280;5553;48.506;8.870;2023-05-22T02:09:02;96247.69;;;10.98;100.00
11001;BME280;5553;48.506;8.870;2023-05-22T02:11:32;96243.44;;;11.10;100.00
11001;BME280;5553;48.506;8.870;2023-05-22T02:14:01;96243.03;;;11.13;100.00
11001;BME280;5553;48.506;8.870;2023-05-22T02:16:33;96250.53;;;11.03;100.00
11001;BME280;5553;48.506;8.870;2023-05-22T02:19:02;96255.03;;;11.15;100.00
11001;BME280;5553;48.506;8.870;2023-05-22T02:21:32;96255.03;;;11.22;100.00
11001;BME280;5553;48.506;8.870;2023-05-22T02:24:01;96256.66;;;11.23;100.00
11001;BME280;5553;48.506;8.870;2023-05-22T02:26:30;96258.91;;;11.26;100.00
11001;BME280;5553;48.506;8.870;2023-05-22T02:28:58;96264.81;;;11.28;100.00
11001;BME280;5553;48.506;8.870;2023-05-22T02:31:26;96265.41;;;11.30;100.00
11001;BME280;5553;48.506;8.870;2023-05-22T02:33:57;96274.13;;;11.31;100.00
11001;BME280;5553;48.506;8.870;2023-05-22T02:36:26;96275.38;;;11.28;100.00
11001;BME280;5553;48.506;8.870;2023-05-22T02:38:55;96282.47;;;11.34;100.00
11001;BME280;5553;48.506;8.870;2023-05-22T02:41:23;96278.81;;;11.35;100.00
11001;BME280;5553;48.506;8.870;2023-05-22T02:43:52;96284.31;;;11.41;100.00
11001;BME280;5553;48.506;8.870;2023-05-22T02:46:20;96283.09;;;11.36;100.00
11001;BME280;5553;48.506;8.870;2023-05-22T02:48:48;96285.50;;;11.38;100.00
11001;BME280;5553;48.506;8.870;2023-05-22T02:51:19;96285.09;;;11.34;100.00
11001;BME280;5553;48.506;8.870;2023-05-22T02:53:47;96294.06;;;11.33;100.00
11001;BME280;5553;48.506;8.870;2023-05-22T02:56:16;96301.75;;;11.35;100.00
11001;BME280;5553;48.506;8.870;2023-05-22T02:58:45;96299.34;;;11.33;100.00
11001;BME280;5553;48.506;8.870;2023-05-22T03:01:13;96300.75;;;11.29;100.00
11001;BME280;5553;48.506;8.870;2023-05-22T03:03:41;96298.91;;;11.30;100.00
11001;BME280;5553;48.506;8.870;2023-05-22T03:06:12;96302.56;;;11.22;100.00
11001;BME280;5553;48.506;8.870;2023-05-22T03:08:43;96292.41;;;11.19;100.00
11001;BME280;5553;48.506;8.870;2023-05-22T03:11:12;96304.97;;;11.17;100.00
11001;BME280;5553;48.506;8.870;2023-05-22T03:13:41;96300.91;;;11.08;100.00
11001;BME280;5553;48.506;8.870;2023-05-22T03:16:09;96310.22;;;11.04;100.00
11001;BME280;5553;48.506;8.870;2023-05-22T03:18:37;96313.72;;;11.04;100.00
11001;BME280;5553;48.506;8.870;2023-05-22T03:21:05;96303.94;;;11.05;100.00
11001;BME280;5553;48.506;8.870;2023-05-22T03:23:34;96309.22;;;11.05;100.00
11001;BME280;5553;48.506;8.870;2023-05-22T03:26:04;96309.84;;;11.13;100.00
11001;BME280;5553;48.506;8.870;2023-05-22T03:28:33;96305.41;;;11.21;100.00
11001;BME280;5553;48.506;8.870;2023-05-22T03:31:01;96294.81;;;11.14;100.00
11001;BME280;5553;48.506;8.870;2023-05-22T03:33:30;96300.91;;;11.08;100.00
11001;BME280;5553;48.506;8.870;2023-05-22T03:35:58;96298.84;;;11.03;100.00
11001;BME280;5553;48.506;8.870;2023-05-22T03:38:27;96295.81;;;11.00;100.00
11001;BME280;5553;48.506;8.870;2023-05-22T03:40:56;96295.00;;;11.06;100.00
11001;BME280;5553;48.506;8.870;2023-05-22T03:43:26;96292.78;;;11.09;100.00
11001;BME280;5553;48.506;8.870;2023-05-22T03:45:55;96293.78;;;11.02;100.00
11001;BME280;5553;48.506;8.870;2023-05-22T03:48:23;96294.22;;;11.05;100.00
11001;BME280;5553;48.506;8.870;2023-05-22T03:50:52;96290.75;;;11.05;100.00
11001;BME280;5553;48.506;8.870;2023-05-22T03:53:20;96283.44;;;11.07;100.00
11001;BME280;5553;48.506;8.870;2023-05-22T03:55:48;96290.56;;;11.13;100.00
11001;BME280;5553;48.506;8.870;2023-05-22T03:58:17;96289.56;;;11.21;100.00
11001;BME280;5553;48.506;8.870;2023-05-22T04:00:48;96295.25;;;11.31;100.00
11001;BME280;5553;48.506;8.870;2023-05-22T04:03:16;96294.88;;;11.41;100.00
11001;BME280;5553;48.506;8.870;2023-05-22T04:05:45;96290.63;;;11.46;100.00
11001;BME280;5553;48.506;8.870;2023-05-22T04:08:13;96289.00;;;11.38;100.00
11001;BME280;5553;48.506;8.870;2023-05-22T04:10:41;96292.03;;;11.35;100.00
11001;BME280;5553;48.506;8.870;2023-05-22T04:13:11;96287.97;;;11.39;100.00
11001;BME280;5553;48.506;8.870;2023-05-22T04:15:39;96290.59;;;11.39;100.00
11001;BME280;5553;48.506;8.870;2023-05-22T04:18:12;96294.88;;;11.41;100.00
11001;BME280;5553;48.506;8.870;2023-05-22T04:20:41;96295.69;;;11.48;100.00
11001;BME280;5553;48.506;8.870;2023-05-22T04:23:09;96294.47;;;11.44;100.00
11001;BME280;5553;48.506;8.870;2023-05-22T04:25:37;96300.56;;;11.51;100.00
11001;BME280;5553;48.506;8.870;2023-05-22T04:28:06;96306.47;;;11.59;100.00
11001;BME280;5553;48.506;8.870;2023-05-22T04:30:34;96312.56;;;11.60;100.00
11001;BME280;5553;48.506;8.870;2023-05-22T04:33:04;96304.66;;;11.73;100.00
11001;BME280;5553;48.506;8.870;2023-05-22T04:35:35;96303.44;;;11.96;100.00
11001;BME280;5553;48.506;8.870;2023-05-22T04:38:05;96304.47;;;12.08;100.00
11001;BME280;5553;48.506;8.870;2023-05-22T04:40:33;96294.28;;;12.12;100.00
11001;BME280;5553;48.506;8.870;2023-05-22T04:43:02;96299.16;;;12.15;100.00
11001;BME280;5553;48.506;8.870;2023-05-22T04:45:30;96295.06;;;12.25;100.00
11001;BME280;5553;48.506;8.870;2023-05-22T04:47:59;96289.94;;;12.37;100.00
11001;BME280;5553;48.506;8.870;2023-05-22T04:50:28;96287.91;;;12.39;100.00
11001;BME280;5553;48.506;8.870;2023-05-22T04:52:59;96292.97;;;12.47;100.00
11001;BME280;5553;48.506;8.870;2023-05-22T04:55:28;96293.97;;;12.53;100.00
11001;BME280;5553;48.506;8.870;2023-05-22T04:57:58;96288.88;;;12.58;100.00
11001;BME280;5553;48.506;8.870;2023-05-22T05:00:27;96292.28;;;12.72;100.00
11001;BME280;5553;48.506;8.870;2023-05-22T05:02:55;96292.25;;;12.78;100.00
11001;BME280;5553;48.506;8.870;2023-05-22T05:05:24;96287.31;;;12.89;100.00
11001;BME280;5553;48.506;8.870;2023-05-22T05:07:53;96287.06;;;12.97;100.00
11001;BME280;5553;48.506;8.870;2023-05-22T05:10:23;96288.50;;;12.99;100.00
11001;BME280;5553;48.506;8.870;2023-05-22T05:12:52;96293.75;;;13.06;100.00
11001;BME280;5553;48.506;8.870;2023-05-22T05:15:20;96295.53;;;13.12;100.00
11001;BME280;5553;48.506;8.870;2023-05-22T05:17:49;96299.41;;;13.16;100.00
11001;BME280;5553;48.506;8.870;2023-05-22T05:20:17;96303.03;;;13.22;100.00
11001;BME280;5553;48.506;8.870;2023-05-22T05:22:45;96299.94;;;13.32;100.00
11001;BME280;5553;48.506;8.870;2023-05-22T05:25:14;96308.19;;;13.48;100.00
11001;BME280;5553;48.506;8.870;2023-05-22T05:27:44;96307.94;;;13.57;100.00
11001;BME280;5553;48.506;8.870;2023-05-22T05:30:13;96298.31;;;13.62;100.00
11001;BME280;5553;48.506;8.870;2023-05-22T05:32:43;96295.66;;;13.62;100.00
11001;BME280;5553;48.506;8.870;2023-05-22T05:35:11;96287.00;;;13.73;100.00
11001;BME280;5553;48.506;8.870;2023-05-22T05:37:39;96278.00;;;13.81;100.00
11001;BME280;5553;48.506;8.870;2023-05-22T05:40:08;96274.25;;;13.89;100.00
11001;BME280;5553;48.506;8.870;2023-05-22T05:42:37;96272.78;;;13.93;100.00
11001;BME280;5553;48.506;8.870;2023-05-22T05:45:09;96266.97;;;14.03;100.00
11001;BME280;5553;48.506;8.870;2023-05-22T05:47:38;96270.13;;;14.11;100.00
11001;BME280;5553;48.506;8.870;2023-05-22T05:50:07;96263.53;;;14.20;100.00
11001;BME280;5553;48.506;8.870;2023-05-22T05:52:35;96260.75;;;14.34;100.00
11001;BME280;5553;48.506;8.870;2023-05-22T05:55:04;96263.75;;;14.37;100.00
11001;BME280;5553;48.506;8.870;2023-05-22T05:57:33;96263.81;;;14.49;100.00
11001;BME280;5553;48.506;8.870;2023-05-22T06:00:01;96258.69;;;14.73;100.00
11001;BME280;5553;48.506;8.870;2023-05-22T06:02:33;96254.25;;;14.85;100.00
11001;BME280;5553;48.506;8.870;2023-05-22T06:05:01;96249.84;;;15.09;100.00
11001;BME280;5553;48.506;8.870;2023-05-22T06:07:30;96244.97;;;15.06;100.00
11001;BME280;5553;48.506;8.870;2023-05-22T06:09:58;96234.72;;;15.21;100.00
11001;BME280;5553;48.506;8.870;2023-05-22T06:12:26;96236.63;;;15.44;100.00
11001;BME280;5553;48.506;8.870;2023-05-22T06:14:55;96232.06;;;15.63;100.00
11001;BME280;5553;48.506;8.870;2023-05-22T06:17:23;96226.91;;;15.80;100.00
11001;BME280;5553;48.506;8.870;2023-05-22T06:19:54;96221.56;;;16.03;100.00
11001;BME280;5553;48.506;8.870;2023-05-22T06:22:23;96221.81;;;15.90;100.00
11001;BME280;5553;48.506;8.870;2023-05-22T06:24:53;96224.13;;;16.50;100.00
11001;BME280;5553;48.506;8.870;2023-05-22T06:27:22;96229.88;;;16.71;100.00
11001;BME280;5553;48.506;8.870;2023-05-22T06:29:51;96218.28;;;16.13;100.00
11001;BME280;5553;48.506;8.870;2023-05-22T06:32:20;96217.72;;;16.23;100.00
11001;BME280;5553;48.506;8.870;2023-05-22T06:34:48;96218.75;;;16.22;100.00
11001;BME280;5553;48.506;8.870;2023-05-22T06:37:19;96215.63;;;16.25;100.00
11001;BME280;5553;48.506;8.870;2023-05-22T06:39:47;96218.59;;;16.40;100.00
11001;BME280;5553;48.506;8.870;2023-05-22T06:42:15;96213.75;;;16.49;100.00
11001;BME280;5553;48.506;8.870;2023-05-22T06:44:44;96214.16;;;16.57;100.00
11001;BME280;5553;48.506;8.870;2023-05-22T06:47:12;96214.97;;;16.98;100.00
11001;BME280;5553;48.506;8.870;2023-05-22T06:49:40;96213.84;;;16.94;100.00
11001;BME280;5553;48.506;8.870;2023-05-22T06:52:08;96208.03;;;16.97;100.00
11001;BME280;5553;48.506;8.870;2023-05-22T06:54:40;96211.94;;;17.07;100.00
11001;BME280;5553;48.506;8.870;2023-05-22T06:57:09;96213.53;;;17.08;100.00
11001;BME280;5553;48.506;8.870;2023-05-22T06:59:37;96213.53;;;17.08;100.00
11001;BME280;5553;48.506;8.870;2023-05-22T07:02:06;96208.44;;;16.89;100.00
11001;BME280;5553;48.506;8.870;2023-05-22T07:04:34;96219.16;;;16.94;100.00
11001;BME280;5553;48.506;8.870;2023-05-22T07:07:03;96231.75;;;17.27;100.00
11001;BME280;5553;48.506;8.870;2023-05-22T07:09:31;96224.84;;;17.15;100.00
11001;BME280;5553;48.506;8.870;2023-05-22T07:12:04;96224.41;;;17.35;100.00
11001;BME280;5553;48.506;8.870;2023-05-22T07:14:32;96234.03;;;17.52;100.00
11001;BME280;5553;48.506;8.870;2023-05-22T07:17:00;96234.44;;;17.61;100.00
11001;BME280;5553;48.506;8.870;2023-05-22T07:19:28;96231.56;;;17.80;100.00
11001;BME280;5553;48.506;8.870;2023-05-22T07:21:57;96229.44;;;18.37;100.00
11001;BME280;5553;48.506;8.870;2023-05-22T07:24:25;96222.47;;;17.97;100.00
11001;BME280;5553;48.506;8.870;2023-05-22T07:26:53;96231.69;;;17.73;100.00
11001;BME280;5553;48.506;8.870;2023-05-22T07:29:24;96235.66;;;17.70;100.00
11001;BME280;5553;48.506;8.870;2023-05-22T07:31:52;96230.31;;;17.53;100.00
11001;BME280;5553;48.506;8.870;2023-05-22T07:34:21;96231.38;;;18.03;100.00
11001;BME280;5553;48.506;8.870;2023-05-22T07:36:56;96227.41;;;18.06;100.00
11001;BME280;5553;48.506;8.870;2023-05-22T07:39:24;96229.22;;;18.22;100.00
11001;BME280;5553;48.506;8.870;2023-05-22T07:41:53;96224.03;;;18.32;100.00
11001;BME280;5553;48.506;8.870;2023-05-22T07:44:23;96231.44;;;18.47;100.00
11001;BME280;5553;48.506;8.870;2023-05-22T07:46:52;96229.91;;;18.12;100.00
11001;BME280;5553;48.506;8.870;2023-05-22T07:49:20;96228.19;;;18.45;100.00
11001;BME280;5553;48.506;8.870;2023-05-22T07:51:48;96224.69;;;19.37;100.00
11001;BME280;5553;48.506;8.870;2023-05-22T07:54:17;96216.34;;;19.02;100.00
11001;BME280;5553;48.506;8.870;2023-05-22T07:56:45;96218.28;;;18.84;100.00
11001;BME280;5553;48.506;8.870;2023-05-22T07:59:14;96226.03;;;19.08;100.00
11001;BME280;5553;48.506;8.870;2023-05-22T08:01:46;96226.13;;;19.50;100.00
11001;BME280;5553;48.506;8.870;2023-05-22T08:04:14;96217.44;;;19.33;100.00
11001;BME280;5553;48.506;8.870;2023-05-22T08:06:43;96223.25;;;19.57;100.00
11001;BME280;5553;48.506;8.870;2023-05-22T08:09:11;96220.16;;;19.11;100.00
11001;BME280;5553;48.506;8.870;2023-05-22T08:11:40;96230.63;;;19.72;100.00
11001;BME280;5553;48.506;8.870;2023-05-22T08:14:09;96221.66;;;19.56;100.00
11001;BME280;5553;48.506;8.870;2023-05-22T08:16:37;96212.72;;;20.20;100.00
11001;BME280;5553;48.506;8.870;2023-05-22T08:19:08;96197.97;;;20.07;100.00
11001;BME280;5553;48.506;8.870;2023-05-22T08:21:36;96210.91;;;20.30;100.00
11001;BME280;5553;48.506;8.870;2023-05-22T08:24:05;96205.94;;;20.02;100.00
11001;BME280;5553;48.506;8.870;2023-05-22T08:26:33;96212.38;;;20.01;100.00
11001;BME280;5553;48.506;8.870;2023-05-22T08:29:03;96200.66;;;20.12;100.00
11001;BME280;5553;48.506;8.870;2023-05-22T08:31:31;96175.09;;;20.42;100.00
11001;BME280;5553;48.506;8.870;2023-05-22T08:34:00;96184.06;;;20.15;100.00
11001;BME280;5553;48.506;8.870;2023-05-22T08:36:33;96174.47;;;20.24;100.00
11001;BME280;5553;48.506;8.870;2023-05-22T10:43:55;96021.59;;;30.10;60.46
11001;BME280;5553;48.506;8.870;2023-05-22T10:46:26;95990.44;;;29.69;58.35
11001;BME280;5553;48.506;8.870;2023-05-22T10:49:02;96013.03;;;29.91;60.24
11001;BME280;5553;48.506;8.870;2023-05-22T10:52:42;95977.75;;;29.44;58.27
11001;BME280;5553;48.506;8.870;2023-05-22T10:54:38;95981.84;;;29.50;58.61
11001;BME280;5553;48.506;8.870;2023-05-22T10:57:13;96003.69;;;30.09;58.97
11001;BME280;5553;48.506;8.870;2023-05-22T11:00:13;95945.50;;;29.34;56.16
11001;BME280;5553;48.506;8.870;2023-05-22T11:02:45;95953.47;;;29.39;56.95
11001;BME280;5553;48.506;8.870;2023-05-22T11:05:32;95984.88;;;30.46;57.28
11001;BME280;5553;48.506;8.870;2023-05-22T11:08:36;95952.78;;;29.50;57.26
11001;BME280;5553;48.506;8.870;2023-05-22T11:11:12;95964.59;;;30.85;55.66
11001;BME280;5553;48.506;8.870;2023-05-22T11:13:40;95898.72;;;29.66;53.15
11001;BME280;5553;48.506;8.870;2023-05-22T11:16:14;95978.41;;;29.79;58.28
11001;BME280;5553;48.506;8.870;2023-05-22T11:18:43;95914.47;;;30.03;53.93
11001;BME280;5553;48.506;8.870;2023-05-22T11:21:11;95942.81;;;30.85;53.74
11001;BME280;5553;48.506;8.870;2023-05-22T11:23:41;95942.50;;;30.24;55.42
11001;BME280;5553;48.506;8.870;2023-05-22T11:26:20;95963.06;;;31.42;54.66
11001;BME280;5553;48.506;8.870;2023-05-22T11:28:51;95908.41;;;30.60;52.98
11001;BME280;5553;48.506;8.870;2023-05-22T11:31:23;95929.03;;;30.28;55.04
11001;BME280;5553;48.506;8.870;2023-05-22T11:33:52;95938.91;;;31.20;54.30
11001;BME280;5553;48.506;8.870;2023-05-22T11:36:21;95914.41;;;30.74;53.72
11001;BME280;5553;48.506;8.870;2023-05-22T11:38:50;95856.63;;;29.43;52.15
11001;BME280;5553;48.506;8.870;2023-05-22T11:41:19;95914.19;;;31.25;52.93
11001;BME280;5553;48.506;8.870;2023-05-22T11:43:47;95937.19;;;31.03;54.45
11001;BME280;5553;48.506;8.870;2023-05-22T11:46:15;95947.09;;;30.53;55.93
11001;BME280;5553;48.506;8.870;2023-05-22T11:48:46;95894.56;;;29.90;53.38
11001;BME280;5553;48.506;8.870;2023-05-22T11:51:18;95890.84;;;30.78;51.28
11001;BME280;5553;48.506;8.870;2023-05-22T11:53:46;95933.09;;;31.54;53.31
11001;BME280;5553;48.506;8.870;2023-05-22T11:56:18;95908.28;;;31.23;52.29
11001;BME280;5553;48.506;8.870;2023-05-22T11:58:47;95883.53;;;31.28;50.71
11001;BME280;5553;48.506;8.870;2023-05-22T12:01:16;95910.03;;;31.76;50.83
11001;BME280;5553;48.506;8.870;2023-05-22T12:03:47;95856.09;;;30.75;49.16
11001;BME280;5553;48.506;8.870;2023-05-22T12:06:16;95892.97;;;31.18;50.96
11001;BME280;5553;48.506;8.870;2023-05-22T12:08:44;95846.06;;;30.55;48.78
11001;BME280;5553;48.506;8.870;2023-05-22T12:11:13;95858.94;;;31.61;47.52
11001;BME280;5553;48.506;8.870;2023-05-22T12:13:41;95849.41;;;31.67;46.79
11001;BME280;5553;48.506;8.870;2023-05-22T12:16:19;95841.41;;;30.55;48.54
11001;BME280;5553;48.506;8.870;2023-05-22T12:18:53;95868.56;;;30.64;50.20
11001;BME280;5553;48.506;8.870;2023-05-22T12:21:22;95871.31;;;31.58;47.87
11001;BME280;5553;48.506;8.870;2023-05-22T12:23:50;95899.34;;;31.59;50.02
11001;BME280;5553;48.506;8.870;2023-05-22T12:26:18;95852.88;;;30.94;48.65
11001;BME280;5553;48.506;8.870;2023-05-22T12:28:47;95894.16;;;31.54;49.37
11001;BME280;5553;48.506;8.870;2023-05-22T12:31:20;95873.66;;;32.37;46.32
11001;BME280;5553;48.506;8.870;2023-05-22T12:33:54;95846.59;;;31.39;46.18
11001;BME280;5553;48.506;8.870;2023-05-22T12:36:31;95865.50;;;31.23;48.02
11001;BME280;5553;48.506;8.870;2023-05-22T12:38:59;95861.63;;;31.00;48.11
11001;BME280;5553;48.506;8.870;2023-05-22T12:41:28;95869.13;;;31.89;47.10
11001;BME280;5553;48.506;8.870;2023-05-22T12:43:56;95848.44;;;32.00;46.14
11001;BME280;5553;48.506;8.870;2023-05-22T12:46:26;95846.53;;;31.14;47.88
11001;BME280;5553;48.506;8.870;2023-05-22T12:48:58;95823.72;;;29.95;49.00
11001;BME280;5553;48.506;8.870;2023-05-22T12:51:28;95860.81;;;30.99;48.38
11001;BME280;5553;48.506;8.870;2023-05-22T12:53:56;95824.81;;;29.94;48.18
11001;BME280;5553;48.506;8.870;2023-05-22T12:56:26;95852.91;;;30.73;48.08
11001;BME280;5553;48.506;8.870;2023-05-22T12:58:55;95872.97;;;31.14;47.91
11001;BME280;5553;48.506;8.870;2023-05-22T13:01:23;95857.53;;;31.06;47.29
11001;BME280;5553;48.506;8.870;2023-05-22T13:03:52;95866.81;;;30.92;47.53
11001;BME280;5553;48.506;8.870;2023-05-22T13:06:23;95870.94;;;30.65;48.49
11001;BME280;5553;48.506;8.870;2023-05-22T13:08:51;95894.09;;;31.29;48.95
11001;BME280;5553;48.506;8.870;2023-05-22T13:11:19;95858.28;;;30.49;48.37
11001;BME280;5553;48.506;8.870;2023-05-22T13:13:48;95863.66;;;30.69;48.20
11001;BME280;5553;48.506;8.870;2023-05-22T13:16:17;95855.63;;;30.61;47.91
11001;BME280;5553;48.506;8.870;2023-05-22T13:18:45;95860.72;;;30.29;49.23
11001;BME280;5553;48.506;8.870;2023-05-22T13:21:13;95839.72;;;30.51;46.99
11001;BME280;5553;48.506;8.870;2023-05-22T13:23:44;95855.47;;;30.90;46.91
11001;BME280;5553;48.506;8.870;2023-05-22T13:26:12;95863.91;;;30.64;47.68
11001;BME280;5553;48.506;8.870;2023-05-22T13:28:41;95877.75;;;31.17;48.15
11001;BME280;5553;48.506;8.870;2023-05-22T13:31:09;95829.38;;;29.81;48.52
11001;BME280;5553;48.506;8.870;2023-05-22T13:33:37;95865.19;;;30.46;49.23
11001;BME280;5553;48.506;8.870;2023-05-22T13:36:06;95823.50;;;31.12;45.89
11001;BME280;5553;48.506;8.870;2023-05-22T13:38:34;95789.59;;;31.09;44.19
11001;BME280;5553;48.506;8.870;2023-05-22T13:41:05;95799.47;;;30.56;45.88
11001;BME280;5553;48.506;8.870;2023-05-22T13:43:33;95805.38;;;30.04;46.72
11001;BME280;5553;48.506;8.870;2023-05-22T13:46:01;95840.63;;;31.25;46.15
11001;BME280;5553;48.506;8.870;2023-05-22T13:48:30;95828.72;;;31.17;45.47
11001;BME280;5553;48.506;8.870;2023-05-22T13:50:58;95805.91;;;30.85;44.46
11001;BME280;5553;48.506;8.870;2023-05-22T13:53:27;95843.34;;;30.88;46.39
11001;BME280;5553;48.506;8.870;2023-05-22T13:55:55;71091.28;;;29.56;48.18
11001;BME280;5553;48.506;8.870;2023-05-22T13:58:26;95835.16;;;29.50;48.15
11001;BME280;5553;48.506;8.870;2023-05-22T14:00:54;95849.63;;;29.71;48.22
11001;BME280;5553;48.506;8.870;2023-05-22T14:03:23;95873.69;;;30.44;47.52
11001;BME280;5553;48.506;8.870;2023-05-22T14:05:51;95876.59;;;30.60;47.42
11001;BME280;5553;48.506;8.870;2023-05-22T14:08:19;95893.09;;;30.55;48.00
11001;BME280;5553;48.506;8.870;2023-05-22T14:10:47;95879.41;;;30.31;46.07
11001;BME280;5553;48.506;8.870;2023-05-22T14:13:16;95892.81;;;28.44;49.90
11001;BME280;5553;48.506;8.870;2023-05-22T14:15:47;95891.38;;;26.75;53.21
11001;BME280;5553;48.506;8.870;2023-05-22T14:18:15;95877.47;;;24.76;56.13
11001;BME280;5553;48.506;8.870;2023-05-22T14:20:44;95896.22;;;23.11;59.42
11001;BME280;5553;48.506;8.870;2023-05-22T14:23:13;95922.75;;;22.60;62.04
11001;BME280;5553;48.506;8.870;2023-05-22T14:25:41;95952.75;;;22.38;63.02
11001;BME280;5553;48.506;8.870;2023-05-22T14:28:10;95955.34;;;21.54;64.65
11001;BME280;5553;48.506;8.870;2023-05-22T14:30:39;96012.50;;;21.39;68.05
11001;BME280;5553;48.506;8.870;2023-05-22T14:33:09;96063.47;;;20.63;72.36
11001;BME280;5553;48.506;8.870;2023-05-22T14:35:38;96105.09;;;20.18;78.54
11001;BME280;5553;48.506;8.870;2023-05-22T14:38:06;96165.34;;;19.73;91.21
11001;BME280;5553;48.506;8.870;2023-05-22T14:40:34;96182.38;;;19.29;100.00
11001;BME280;5553;48.506;8.870;2023-05-22T14:43:03;96198.06;;;19.21;100.00
11001;BME280;5553;48.506;8.870;2023-05-22T14:45:31;96233.00;;;19.14;100.00
11001;BME280;5553;48.506;8.870;2023-05-22T14:47:59;96250.53;;;18.39;100.00
11001;BME280;5553;48.506;8.870;2023-05-22T14:50:31;96264.16;;;17.98;100.00
11001;BME280;5553;48.506;8.870;2023-05-22T14:52:59;96259.81;;;16.49;100.00
11001;BME280;5553;48.506;8.870;2023-05-22T14:55:27;96258.88;;;16.55;100.00
11001;BME280;5553;48.506;8.870;2023-05-22T14:57:56;96249.78;;;16.80;100.00
11001;BME280;5553;48.506;8.870;2023-05-22T15:00:24;96242.28;;;16.65;100.00
11001;BME280;5553;48.506;8.870;2023-05-22T15:02:53;96221.00;;;16.65;100.00
11001;BME280;5553;48.506;8.870;2023-05-22T15:05:21;96241.22;;;16.78;100.00
11001;BME280;5553;48.506;8.870;2023-05-22T15:07:53;96245.81;;;16.94;100.00
11001;BME280;5553;48.506;8.870;2023-05-22T15:10:23;96232.69;;;16.76;100.00
11001;BME280;5553;48.506;8.870;2023-05-22T15:12:51;96228.72;;;16.67;100.00
11001;BME280;5553;48.506;8.870;2023-05-22T15:17:46;96213.09;;;16.99;100.00
11001;BME280;5553;48.506;8.870;2023-05-22T15:20:15;96202.31;;;17.05;100.00
11001;BME280;5553;48.506;8.870;2023-05-22T15:22:43;96202.31;;;17.05;100.00
11001;BME280;5553;48.506;8.870;2023-05-22T15:25:14;96211.34;;;17.04;100.00
11001;BME280;5553;48.506;8.870;2023-05-22T15:27:43;96195.31;;;17.16;100.00
11001;BME280;5553;48.506;8.870;2023-05-22T15:30:11;96195.31;;;17.16;100.00